createdAt,value
2022-11-24T00:01:17.960Z,99608.50
2022-11-24T00:03:45.929Z,99606.25
2022-11-24T00:06:15.277Z,99603.50
2022-11-24T00:08:45.861Z,99606.44
2022-11-24T00:11:15.220Z,99604.44
2022-11-24T00:13:42.331Z,99601.66
2022-11-24T00:16:20.127Z,99593.00
2022-11-24T00:18:48.523Z,99603.28
2022-11-24T00:21:17.230Z,99589.28
2022-11-24T00:23:44.496Z,99593.53
2022-11-24T00:26:17.260Z,99589.66
2022-11-24T00:28:45.169Z,99601.28
2022-11-24T00:31:26.335Z,99593.69
2022-11-24T00:33:55.442Z,99596.31
2022-11-24T00:36:24.105Z,99589.44
2022-11-24T00:38:58.961Z,99598.69
2022-11-24T00:41:26.843Z,99594.66
2022-11-24T00:43:53.729Z,99593.16
2022-11-24T00:46:21.616Z,99606.22
2022-11-24T00:48:48.195Z,99598.47
2022-11-24T00:51:16.170Z,99598.09
2022-11-24T00:53:43.266Z,99594.59
2022-11-24T00:56:10.925Z,99584.69
2022-11-24T00:58:38.186Z,99586.69
2022-11-24T01:01:06.025Z,99601.59
2022-11-24T01:03:33.648Z,99596.25
2022-11-24T01:06:07.794Z,99603.50
2022-11-24T01:08:36.114Z,99606.84
2022-11-24T01:11:15.959Z,99610.53
2022-11-24T01:13:44.362Z,99612.81
2022-11-24T01:16:22.634Z,99618.84
2022-11-24T01:18:49.670Z,99629.34
2022-11-24T01:21:16.918Z,99635.50
2022-11-24T01:23:43.878Z,99634.16
2022-11-24T01:26:14.682Z,99641.72
2022-11-24T01:28:46.581Z,99638.97
2022-11-24T01:31:15.532Z,99638.59
2022-11-24T01:33:42.331Z,99641.94
2022-11-24T01:36:08.905Z,99636.22
2022-11-24T01:38:35.622Z,99639.72
2022-11-24T01:41:08.170Z,99647.84
2022-11-24T01:43:35.074Z,99633.13
2022-11-24T01:46:30.159Z,99631.06
2022-11-24T01:49:14.751Z,99631.06
2022-11-24T01:52:06.092Z,99631.69
2022-11-24T01:54:46.353Z,99642.09
2022-11-24T01:57:40.407Z,99648.78
2022-11-24T02:00:12.849Z,99646.34
2022-11-24T02:02:39.695Z,99651.56
2022-11-24T02:05:11.842Z,99653.03
2022-11-24T02:07:38.641Z,99650.78
2022-11-24T02:10:14.139Z,99657.41
2022-11-24T02:12:45.852Z,99657.53
2022-11-24T02:15:15.298Z,99658.38
2022-11-24T02:17:41.839Z,99650.75
2022-11-24T02:20:10.016Z,99649.75
2022-11-24T02:22:55.938Z,99647.94
2022-11-24T02:25:40.813Z,99657.09
2022-11-24T02:28:10.899Z,99657.78
2022-11-24T02:30:37.697Z,99664.34
2022-11-24T02:33:04.296Z,99656.06
2022-11-24T02:35:31.982Z,99660.19
2022-11-24T02:37:58.481Z,99660.19
2022-11-24T02:40:27.897Z,99655.94
2022-11-24T02:43:00.482Z,99651.97
2022-11-24T02:45:28.331Z,99666.34
2022-11-24T02:47:54.946Z,99672.03
2022-11-24T02:50:21.591Z,99671.53
2022-11-24T02:52:48.099Z,99668.84
2022-11-24T02:55:14.703Z,99680.44
2022-11-24T02:57:41.597Z,99686.84
2022-11-24T03:00:09.102Z,99691.00
2022-11-24T03:02:35.678Z,99690.41
2022-11-24T03:05:02.422Z,99685.44
2022-11-24T03:07:29.095Z,99687.72
2022-11-24T03:09:55.638Z,99680.31
2022-11-24T03:12:22.246Z,99688.19
2022-11-24T03:14:48.756Z,99688.97
2022-11-24T03:17:15.346Z,99674.13
2022-11-24T03:19:41.944Z,99680.69
2022-11-24T03:22:08.475Z,99674.91
2022-11-24T03:24:35.327Z,99687.31
2022-11-24T03:27:02.037Z,99684.09
2022-11-24T03:29:28.567Z,99681.66
2022-11-24T03:31:55.070Z,99694.47
2022-11-24T03:34:21.708Z,99698.16
2022-11-24T03:36:48.254Z,99693.75
2022-11-24T03:39:14.774Z,99689.34
2022-11-24T03:41:41.475Z,99687.56
2022-11-24T03:44:08.023Z,99686.00
2022-11-24T03:46:34.677Z,99696.69
2022-11-24T03:49:01.478Z,99691.09
2022-11-24T03:51:28.044Z,99684.72
2022-11-24T03:53:54.568Z,99687.09
2022-11-24T03:56:21.201Z,99690.16
2022-11-24T03:58:47.743Z,99683.56
2022-11-24T04:01:14.412Z,99694.03
2022-11-24T04:03:41.138Z,99690.22
2022-11-24T04:06:07.765Z,99696.63
2022-11-24T04:08:34.280Z,99687.47
2022-11-24T04:11:01.207Z,99697.22
2022-11-24T04:13:28.801Z,99694.00
2022-11-24T04:15:55.363Z,99684.56
2022-11-24T04:18:22.361Z,99680.53
2022-11-24T04:20:50.561Z,99678.38
2022-11-24T04:23:17.853Z,99692.84
2022-11-24T04:25:44.798Z,99693.00
2022-11-24T04:28:11.349Z,99689.47
2022-11-24T04:30:38.670Z,99716.09
2022-11-24T04:33:05.340Z,99721.19
2022-11-24T04:35:31.841Z,99725.81
2022-11-24T04:38:02.434Z,99722.50
2022-11-24T04:40:29.571Z,99708.91
2022-11-24T04:42:56.417Z,99704.16
2022-11-24T04:45:23.945Z,99703.78
2022-11-24T04:47:51.134Z,99707.19
2022-11-24T04:50:17.814Z,99714.09
2022-11-24T04:52:44.409Z,99724.88
2022-11-24T04:55:11.430Z,99727.53
2022-11-24T04:57:38.071Z,99727.50
2022-11-24T05:00:06.026Z,99730.25
2022-11-24T05:02:32.725Z,99722.84
2022-11-24T05:04:59.233Z,99726.63
2022-11-24T05:07:25.901Z,99731.00
2022-11-24T05:10:11.425Z,99730.84
2022-11-24T05:12:39.581Z,99723.81
2022-11-24T05:15:07.458Z,99722.38
2022-11-24T05:17:36.520Z,99723.03
2022-11-24T05:20:05.596Z,99725.56
2022-11-24T05:22:32.187Z,99725.38
2022-11-24T05:24:59.015Z,99729.50
2022-11-24T05:27:25.568Z,99727.81
2022-11-24T05:29:52.092Z,99735.16
2022-11-24T05:32:18.687Z,99737.03
2022-11-24T05:34:45.236Z,99748.50
2022-11-24T05:37:11.865Z,99745.41
2022-11-24T05:39:38.609Z,99735.72
2022-11-24T05:42:25.534Z,99742.16
2022-11-24T05:44:52.868Z,99747.22
2022-11-24T05:47:20.033Z,99755.91
2022-11-24T05:49:46.858Z,99754.47
2022-11-24T05:52:14.002Z,99752.09
2022-11-24T05:54:40.497Z,99745.00
2022-11-24T05:57:07.034Z,99743.44
2022-11-24T05:59:33.960Z,99744.91
2022-11-24T06:02:00.591Z,99738.81
2022-11-24T06:04:27.271Z,99741.19
2022-11-24T06:06:53.848Z,99736.47
2022-11-24T06:09:20.569Z,99735.91
2022-11-24T06:11:48.501Z,99736.72
2022-11-24T06:14:15.147Z,99737.03
2022-11-24T06:16:41.816Z,99751.47
2022-11-24T06:19:09.845Z,99752.88
2022-11-24T06:21:36.757Z,99762.56
2022-11-24T06:24:03.562Z,99760.88
2022-11-24T06:26:30.057Z,99765.41
2022-11-24T06:28:56.659Z,99767.47
2022-11-24T06:31:23.534Z,99769.41
2022-11-24T06:33:50.187Z,99772.72
2022-11-24T06:36:16.792Z,99778.41
2022-11-24T06:38:43.351Z,99766.91
2022-11-24T06:41:13.809Z,99780.72
2022-11-24T06:43:40.748Z,99775.09
2022-11-24T06:46:08.023Z,99774.38
2022-11-24T06:48:34.684Z,99778.41
2022-11-24T06:51:03.154Z,99784.22
2022-11-24T06:53:31.110Z,99794.44
2022-11-24T06:55:59.569Z,99792.22
2022-11-24T06:58:26.478Z,99791.38
2022-11-24T07:00:53.136Z,99788.88
2022-11-24T07:03:19.798Z,99788.56
2022-11-24T07:05:46.523Z,99788.09
2022-11-24T07:08:17.582Z,99798.28
2022-11-24T07:10:44.678Z,99790.44
2022-11-24T07:13:11.526Z,99794.34
2022-11-24T07:15:38.034Z,99794.97
2022-11-24T07:18:04.723Z,99794.16
2022-11-24T07:20:31.643Z,99791.25
2022-11-24T07:22:59.119Z,99801.34
2022-11-24T07:25:25.885Z,99801.88
2022-11-24T07:27:56.922Z,99808.31
2022-11-24T07:30:24.257Z,99813.81
2022-11-24T07:32:51.243Z,99813.28
2022-11-24T07:35:18.105Z,99807.34
2022-11-24T07:37:44.594Z,99810.25
2022-11-24T07:40:11.609Z,99809.50
2022-11-24T07:42:38.353Z,99805.78
2022-11-24T07:45:05.198Z,99810.38
2022-11-24T07:47:31.718Z,99811.59
2022-11-24T07:49:58.464Z,99804.97
2022-11-24T07:52:26.743Z,99803.69
2022-11-24T07:54:53.393Z,99809.59
2022-11-24T07:57:20.076Z,99821.59
2022-11-24T07:59:46.566Z,99827.91
2022-11-24T08:02:13.425Z,99826.72
2022-11-24T08:04:40.109Z,99830.75
2022-11-24T08:07:06.808Z,99834.06
2022-11-24T08:09:33.434Z,99837.00
2022-11-24T08:12:00.161Z,99826.72
2022-11-24T08:14:26.663Z,99829.69
2022-11-24T08:16:53.227Z,99839.22
2022-11-24T08:19:19.955Z,99843.09
2022-11-24T08:21:46.436Z,99853.63
2022-11-24T08:24:15.254Z,99847.31
2022-11-24T08:26:42.652Z,99843.31
2022-11-24T08:29:09.798Z,99840.63
2022-11-24T08:31:39.085Z,99837.91
2022-11-24T08:34:06.579Z,99846.97
2022-11-24T08:36:34.220Z,99841.94
2022-11-24T08:39:01.225Z,99849.94
2022-11-24T08:41:29.180Z,99851.41
2022-11-24T08:43:56.247Z,99851.63
2022-11-24T08:46:24.033Z,99861.63
2022-11-24T08:48:53.796Z,99851.84
2022-11-24T08:51:26.272Z,99858.69
2022-11-24T08:53:58.355Z,99856.13
2022-11-24T08:56:26.158Z,99857.06
2022-11-24T08:58:53.726Z,99846.94
2022-11-24T09:01:20.667Z,99857.09
2022-11-24T09:03:50.986Z,99849.53
2022-11-24T09:06:26.994Z,99855.25
2022-11-24T09:08:54.561Z,99857.31
2022-11-24T09:11:21.506Z,99855.75
2022-11-24T09:13:48.395Z,99852.25
2022-11-24T09:16:20.291Z,99855.56
2022-11-24T09:18:47.871Z,99859.25
2022-11-24T09:21:17.807Z,99862.41
2022-11-24T09:23:46.171Z,99878.63
2022-11-24T09:26:13.996Z,99869.34
2022-11-24T09:28:41.556Z,99874.16
2022-11-24T09:31:11.652Z,99873.34
2022-11-24T09:33:39.115Z,99871.31
2022-11-24T09:36:06.805Z,99871.56
2022-11-24T09:38:33.896Z,99867.25
2022-11-24T09:41:38.264Z,99871.25
2022-11-24T09:44:07.693Z,99862.69
2022-11-24T09:47:21.954Z,99866.25
2022-11-24T09:49:59.295Z,99888.75
2022-11-24T09:52:53.898Z,99882.22
2022-11-24T09:55:28.707Z,99884.78
2022-11-24T09:58:30.188Z,99880.38
2022-11-24T10:00:58.216Z,99878.19
2022-11-24T10:03:34.608Z,99872.28
2022-11-24T10:06:05.506Z,99871.34
2022-11-24T10:08:38.198Z,99879.03
2022-11-24T10:11:13.730Z,99867.72
2022-11-24T10:14:01.571Z,99871.06
2022-11-24T10:16:44.039Z,99876.25
2022-11-24T10:19:39.402Z,99870.44
2022-11-24T10:22:15.352Z,99880.38
2022-11-24T10:25:00.907Z,99872.31
2022-11-24T10:27:41.797Z,99867.53
2022-11-24T10:30:20.614Z,99864.19
2022-11-24T10:32:49.779Z,99849.16
2022-11-24T10:35:22.593Z,99849.38
2022-11-24T10:38:06.408Z,99841.22
2022-11-24T10:40:56.524Z,99856.94
2022-11-24T10:43:27.182Z,99844.19
2022-11-24T10:46:15.165Z,99842.88
2022-11-24T10:48:56.484Z,99836.16
2022-11-24T10:51:33.076Z,99841.06
2022-11-24T10:54:26.013Z,99834.84
2022-11-24T10:56:54.347Z,99830.44
2022-11-24T10:59:20.888Z,99827.19
2022-11-24T11:01:47.562Z,99819.97
2022-11-24T11:04:22.513Z,99822.75
2022-11-24T11:06:49.019Z,99821.75
2022-11-24T11:09:22.803Z,99826.66
2022-11-24T11:11:49.555Z,99828.31
2022-11-24T11:14:37.881Z,99826.75
2022-11-24T11:17:33.089Z,99817.38
2022-11-24T11:20:16.999Z,99814.28
2022-11-24T11:22:45.369Z,99816.84
2022-11-24T11:25:18.425Z,99814.25
2022-11-24T11:27:45.078Z,99803.13
2022-11-24T11:36:13.618Z,99786.78
2022-11-24T11:38:41.171Z,99775.19
2022-11-24T11:41:19.326Z,99774.53
2022-11-24T11:43:50.194Z,99766.97
2022-11-24T11:46:17.243Z,99754.97
2022-11-24T11:48:46.908Z,99750.41
2022-11-24T11:54:53.347Z,99751.78
2022-11-24T11:57:31.631Z,99739.31
2022-11-24T12:00:22.468Z,99745.94
2022-11-24T12:02:58.503Z,99739.22
2022-11-24T12:05:34.967Z,99727.91
2022-11-24T12:08:55.965Z,99722.78
2022-11-24T12:11:33.204Z,99718.38
2022-11-24T12:14:24.509Z,99725.25
2022-11-24T12:17:26.617Z,99721.28
2022-11-24T12:20:03.780Z,99707.06
2022-11-24T12:22:52.058Z,99706.06
2022-11-24T12:25:45.501Z,99712.50
2022-11-24T12:28:30.520Z,99707.50
2022-11-24T12:31:07.489Z,99704.44
2022-11-24T12:34:08.349Z,99687.97
2022-11-24T12:36:46.105Z,99693.88
2022-11-24T12:39:49.740Z,99687.69
2022-11-24T12:42:53.172Z,99683.28
2022-11-24T12:46:01.766Z,99686.38
2022-11-24T12:48:50.383Z,99667.69
2022-11-24T12:51:21.084Z,99661.19
2022-11-24T12:53:50.870Z,99655.78
2022-11-24T12:56:26.018Z,99645.03
2022-11-24T12:58:56.886Z,99638.41
2022-11-24T13:01:38.305Z,99621.03
2022-11-24T13:04:08.157Z,99621.91
2022-11-24T13:07:15.528Z,99626.13
2022-11-24T13:10:19.502Z,99626.13
2022-11-24T13:13:11.783Z,99621.09
2022-11-24T13:19:10.198Z,99616.78
2022-11-24T13:21:36.896Z,99607.78
2022-11-24T13:24:16.605Z,99599.41
2022-11-24T13:26:43.262Z,99597.56
2022-11-24T13:29:28.613Z,99591.41
2022-11-24T13:32:15.589Z,99583.34
2022-11-24T13:34:49.971Z,99592.38
2022-11-24T13:37:32.135Z,99576.31
2022-11-24T13:40:14.700Z,99573.09
2022-11-24T13:43:10.201Z,99554.63
2022-11-24T13:45:40.154Z,99536.53
2022-11-24T13:48:19.187Z,99534.28
2022-11-24T13:50:54.740Z,99524.88
2022-11-24T13:53:37.739Z,99529.09
2022-11-24T13:56:04.422Z,99524.78
2022-11-24T13:58:37.209Z,99528.75
2022-11-24T14:01:25.993Z,99538.00
2022-11-24T14:04:29.210Z,99548.16
2022-11-24T14:07:05.574Z,99541.56
2022-11-24T14:09:34.065Z,99537.41
2022-11-24T14:12:14.584Z,99526.53
2022-11-24T14:14:42.054Z,99519.13
2022-11-24T14:17:16.565Z,99516.53
2022-11-24T14:19:45.275Z,99511.88
2022-11-24T14:22:33.052Z,99525.50
2022-11-24T14:25:01.432Z,99521.19
2022-11-24T14:27:31.607Z,99521.69
2022-11-24T14:30:01.016Z,99523.13
2022-11-24T14:32:28.305Z,99523.97
2022-11-24T14:34:55.626Z,99521.91
2022-11-24T14:37:22.956Z,99534.63
2022-11-24T14:39:49.716Z,99539.72
2022-11-24T14:42:23.105Z,99556.75
2022-11-24T14:44:59.133Z,99562.56
2022-11-24T14:47:31.394Z,99580.28
2022-11-24T14:50:08.983Z,99580.00
2022-11-24T14:52:36.044Z,99571.91
2022-11-24T14:55:21.289Z,99573.63
2022-11-24T14:57:48.925Z,99563.97
2022-11-24T15:00:19.884Z,99564.63
2022-11-24T15:02:51.985Z,99562.22
2022-11-24T15:05:20.851Z,99557.22
2022-11-24T15:07:49.858Z,99557.97
2022-11-24T15:10:34.017Z,99569.22
2022-11-24T15:13:03.925Z,99570.19
2022-11-24T15:15:39.223Z,99568.19
2022-11-24T15:18:06.927Z,99562.47
2022-11-24T15:20:36.954Z,99565.97
2022-11-24T15:23:12.531Z,99558.72
2022-11-24T15:25:39.284Z,99559.88
2022-11-24T15:28:05.827Z,99548.41
2022-11-24T15:30:34.755Z,99548.09
2022-11-24T15:33:01.483Z,99542.25
2022-11-24T15:35:32.711Z,99538.53
2022-11-24T15:37:59.465Z,99541.31
2022-11-24T15:40:26.083Z,99531.06
2022-11-24T15:42:54.799Z,99534.16
2022-11-24T15:45:24.100Z,99535.47
2022-11-24T15:47:50.830Z,99535.94
2022-11-24T15:50:17.911Z,99535.66
2022-11-24T15:52:46.110Z,99541.22
2022-11-24T15:55:19.055Z,99547.97
2022-11-24T15:57:45.945Z,99552.78
2022-11-24T16:00:21.549Z,99550.91
2022-11-24T16:02:48.378Z,99552.50
2022-11-24T16:05:16.412Z,99543.41
2022-11-24T16:07:43.813Z,99548.09
2022-11-24T16:10:33.640Z,99543.25
2022-11-24T16:13:00.533Z,99545.19
2022-11-24T16:15:27.101Z,99554.38
2022-11-24T16:17:53.733Z,99547.97
2022-11-24T16:20:20.444Z,99554.97
2022-11-24T16:22:47.051Z,99566.13
2022-11-24T16:25:14.373Z,99571.25
2022-11-24T16:27:42.269Z,99577.16
2022-11-24T16:30:11.247Z,99574.06
2022-11-24T16:32:37.877Z,99575.88
2022-11-24T16:35:06.101Z,99583.34
2022-11-24T16:37:33.380Z,99581.00
2022-11-24T16:40:01.620Z,99573.38
2022-11-24T16:42:28.813Z,99566.69
2022-11-24T16:44:55.336Z,99563.34
2022-11-24T16:47:21.928Z,99567.72
2022-11-24T16:49:48.652Z,99565.22
2022-11-24T16:52:16.185Z,99571.69
2022-11-24T16:54:42.768Z,99575.91
2022-11-24T16:57:14.918Z,99583.47
2022-11-24T16:59:43.362Z,99581.84
2022-11-24T17:02:12.406Z,99573.81
2022-11-24T17:04:39.290Z,99569.69
2022-11-24T17:07:05.917Z,99569.41
2022-11-24T17:09:37.343Z,99567.47
2022-11-24T17:12:06.876Z,99555.44
2022-11-24T17:14:33.702Z,99560.53
2022-11-24T17:17:00.581Z,99561.44
2022-11-24T17:19:27.166Z,99563.84
2022-11-24T17:21:54.681Z,99556.13
2022-11-24T17:24:21.584Z,99553.34
2022-11-24T17:26:51.364Z,99545.38
2022-11-24T17:29:18.592Z,99532.78
2022-11-24T17:31:45.902Z,99536.59
2022-11-24T17:34:12.641Z,99541.41
2022-11-24T17:36:44.893Z,99550.47
2022-11-24T17:39:12.021Z,99540.47
2022-11-24T17:41:38.619Z,99544.44
2022-11-24T17:44:07.901Z,99545.03
2022-11-24T17:46:34.764Z,99550.72
2022-11-24T17:49:01.288Z,99555.84
2022-11-24T17:51:27.955Z,99555.13
2022-11-24T17:53:55.695Z,99556.69
2022-11-24T17:56:27.178Z,99560.88
2022-11-24T17:58:56.072Z,99554.72
2022-11-24T18:01:23.389Z,99544.06
2022-11-24T18:03:53.392Z,99537.66
2022-11-24T18:06:20.780Z,99531.94
2022-11-24T18:08:47.996Z,99540.59
2022-11-24T18:11:24.637Z,99543.34
2022-11-24T18:14:00.623Z,99545.94
2022-11-24T18:16:30.172Z,99541.97
2022-11-24T18:19:14.624Z,99545.53
2022-11-24T18:21:42.289Z,99535.25
2022-11-24T18:24:10.401Z,99544.31
2022-11-24T18:26:38.121Z,99544.41
2022-11-24T18:29:04.909Z,99535.41
2022-11-24T18:31:32.448Z,99528.38
2022-11-24T18:33:59.385Z,99529.94
2022-11-24T18:36:30.304Z,99537.28
2022-11-24T18:39:00.484Z,99542.44
2022-11-24T18:41:27.201Z,99535.47
2022-11-24T18:43:53.940Z,99534.59
2022-11-24T18:46:20.748Z,99523.94
2022-11-24T18:48:47.457Z,99527.56
2022-11-24T18:51:17.707Z,99523.47
2022-11-24T18:53:46.221Z,99520.78
2022-11-24T18:56:15.492Z,99525.94
2022-11-24T18:58:42.706Z,99534.38
2022-11-24T19:01:24.053Z,99531.59
2022-11-24T19:03:53.393Z,99521.53
2022-11-24T19:06:22.036Z,99527.22
2022-11-24T19:08:51.864Z,99525.25
2022-11-24T19:11:28.303Z,99520.13
2022-11-24T19:13:56.118Z,99526.72
2022-11-24T19:16:23.464Z,99520.13
2022-11-24T19:18:54.055Z,99517.19
2022-11-24T19:21:22.383Z,99518.06
2022-11-24T19:23:49.882Z,99527.91
2022-11-24T19:26:16.594Z,99527.47
2022-11-24T19:28:43.363Z,99529.16
2022-11-24T19:31:12.865Z,99529.94
2022-11-24T19:33:40.610Z,99535.22
2022-11-24T19:36:11.301Z,99543.75
2022-11-24T19:38:38.016Z,99541.78
2022-11-24T19:41:06.959Z,99533.78
2022-11-24T19:43:34.053Z,99543.59
2022-11-24T19:46:06.915Z,99560.59
2022-11-24T19:48:36.037Z,99568.97
2022-11-24T19:51:07.752Z,99567.09
2022-11-24T19:53:35.623Z,99566.47
2022-11-24T19:56:11.068Z,99560.41
2022-11-24T19:58:39.007Z,99572.81
2022-11-24T20:01:17.238Z,99583.16
2022-11-24T20:03:45.280Z,99581.97
2022-11-24T20:06:13.478Z,99581.88
2022-11-24T20:08:41.427Z,99589.97
2022-11-24T20:11:16.163Z,99577.22
2022-11-24T20:13:44.577Z,99585.88
2022-11-24T20:16:13.430Z,99589.19
2022-11-24T20:18:44.402Z,99588.56
2022-11-24T20:21:16.319Z,99582.44
2022-11-24T20:23:43.903Z,99584.25
2022-11-24T20:26:16.445Z,99590.56
2022-11-24T20:28:43.528Z,99597.06
2022-11-24T20:31:13.891Z,99600.72
2022-11-24T20:33:41.201Z,99606.09
2022-11-24T20:36:10.430Z,99613.13
2022-11-24T20:38:43.860Z,99610.44
2022-11-24T20:41:13.669Z,99606.63
2022-11-24T20:43:41.638Z,99597.63
2022-11-24T20:46:12.569Z,99599.50
2022-11-24T20:48:39.519Z,99599.13
2022-11-24T20:51:08.620Z,99596.91
2022-11-24T20:53:35.996Z,99593.31
2022-11-24T20:56:06.175Z,99607.50
2022-11-24T20:58:34.457Z,99601.53
2022-11-24T21:01:13.070Z,99590.59
2022-11-24T21:03:43.357Z,99599.84
2022-11-24T21:06:14.096Z,99607.34
2022-11-24T21:08:42.082Z,99612.75
2022-11-24T21:11:13.646Z,99616.72
2022-11-24T21:13:42.752Z,99619.84
2022-11-24T21:16:26.760Z,99613.00
2022-11-24T21:18:57.940Z,99587.31
2022-11-24T21:21:25.558Z,99599.91
2022-11-24T21:23:52.088Z,99604.13
2022-11-24T21:26:19.571Z,99622.50
2022-11-24T21:28:47.491Z,99617.09
2022-11-24T21:31:17.813Z,99622.44
2022-11-24T21:33:47.195Z,99621.38
2022-11-24T21:36:15.905Z,99617.44
2022-11-24T21:38:42.828Z,99622.03
2022-11-24T21:41:11.162Z,99627.94
2022-11-24T21:43:38.633Z,99623.50
2022-11-24T21:46:07.962Z,99623.34
2022-11-24T21:48:36.759Z,99633.09
2022-11-24T21:51:06.696Z,99646.78
2022-11-24T21:53:35.712Z,99635.50
2022-11-24T21:56:05.770Z,99645.59
2022-11-24T21:58:33.723Z,99661.22
2022-11-24T22:01:10.876Z,99658.50
2022-11-24T22:03:37.473Z,99651.97
2022-11-24T22:06:04.291Z,99649.53
2022-11-24T22:08:31.797Z,99644.97
2022-11-24T22:11:15.055Z,99659.00
2022-11-24T22:13:43.005Z,99663.91
2022-11-24T22:16:12.584Z,99665.91
2022-11-24T22:18:41.543Z,99664.78
2022-11-24T22:21:11.800Z,99660.69
2022-11-24T22:23:38.611Z,99652.72
2022-11-24T22:26:07.027Z,99664.53
2022-11-24T22:28:35.554Z,99675.31
2022-11-24T22:31:16.567Z,99672.94
2022-11-24T22:33:46.491Z,99664.84
2022-11-24T22:36:14.098Z,99671.00
2022-11-24T22:38:42.304Z,99667.94
2022-11-24T22:41:15.465Z,99671.44
2022-11-24T22:43:43.068Z,99663.81
2022-11-24T22:46:11.277Z,99661.16
2022-11-24T22:48:38.620Z,99665.28
2022-11-24T22:51:07.321Z,99665.69
2022-11-24T22:53:34.233Z,99674.28
2022-11-24T22:56:02.852Z,99666.19
2022-11-24T22:58:30.906Z,99662.50
2022-11-24T23:00:57.479Z,99663.00
2022-11-24T23:03:24.192Z,99654.78
2022-11-24T23:05:50.764Z,99651.03
2022-11-24T23:08:17.242Z,99668.00
2022-11-24T23:10:43.920Z,99668.72
2022-11-24T23:13:10.399Z,99671.31
2022-11-24T23:15:36.892Z,99655.59
2022-11-24T23:18:03.861Z,99651.56
2022-11-24T23:20:30.349Z,99659.53
2022-11-24T23:22:57.245Z,99655.47
2022-11-24T23:25:23.964Z,99656.47
2022-11-24T23:27:50.517Z,99662.50
2022-11-24T23:30:17.060Z,99664.47
2022-11-24T23:32:43.841Z,99666.13
2022-11-24T23:35:13.750Z,99658.19
2022-11-24T23:38:05.926Z,99655.34
2022-11-24T23:40:28.545Z,99646.22
2022-11-24T23:42:55.105Z,99650.47
2022-11-24T23:45:21.576Z,99659.38
2022-11-24T23:47:48.213Z,99661.50
2022-11-24T23:50:14.837Z,99660.53
2022-11-24T23:52:41.312Z,99654.16
2022-11-24T23:57:57.450Z,99651.09
